Time;durP1;ratioP1;P1;durP2;ratioP2;P2;SDS_P1;SDS_P2;PMS_P1;PMS_P2;Temp;Humidity;BMP_temperature;BMP_pressure;BME280_temperature;BME280_humidity;BME280_pressure;Samples;Min_cycle;Max_cycle;Signal;HPM_P1;HPM_P2
2022/09/07 00:01:34;;;;;;;;;;;;;;;23.10;55.50;99717.53;4472042;32;34392;-62
2022/09/07 00:04:02;;;;;;;;;;;;;;;23.12;55.14;99718.19;4477074;32;32754;-62
2022/09/07 00:06:30;;;;;;;;;;;;;;;23.12;55.03;99726.37;4482631;32;33350;-62
2022/09/07 00:08:57;;;;;;;;;;;;;;;23.05;55.45;99720.88;4484774;32;33862;-61
2022/09/07 00:11:24;;;;;;;;;;;;;;;22.83;55.62;99722.72;4478332;32;34119;-62
2022/09/07 00:13:52;;;;;;;;;;;;;;;22.73;55.66;99725.78;4483534;32;34163;-62
2022/09/07 00:16:23;;;;;;;;;;;;;;;22.84;55.35;99718.94;4478291;32;33682;-62
2022/09/07 00:18:58;;;;;;;;;;;;;;;22.85;55.65;99720.63;4482735;32;34029;-62
2022/09/07 00:21:25;;;;;;;;;;;;;;;22.87;55.34;99709.53;4483198;32;35456;-62
2022/09/07 00:23:53;;;;;;;;;;;;;;;22.87;55.23;99713.09;4480264;32;34227;-61
2022/09/07 00:26:21;;;;;;;;;;;;;;;22.83;55.37;99705.50;4485159;32;33009;-61
2022/09/07 00:28:49;;;;;;;;;;;;;;;22.78;55.47;99703.34;4484026;32;36624;-63
2022/09/07 00:31:18;;;;;;;;;;;;;;;22.75;55.35;99701.00;4481447;32;34242;-62
2022/09/07 00:33:47;;;;;;;;;;;;;;;22.73;55.23;99700.38;4483335;32;34729;-62
2022/09/07 00:36:17;;;;;;;;;;;;;;;22.72;55.21;99698.66;4483833;32;33551;-61
2022/09/07 00:38:45;;;;;;;;;;;;;;;22.73;54.84;99692.19;4482282;32;34205;-62
2022/09/07 00:41:12;;;;;;;;;;;;;;;22.54;55.47;99697.25;4481558;32;34341;-62
2022/09/07 00:43:41;;;;;;;;;;;;;;;22.59;55.35;99690.34;4480745;32;34154;-62
2022/09/07 00:46:09;;;;;;;;;;;;;;;;;;4473995;32;33407;-62
2022/09/07 00:48:38;;;;;;;;;;;;;;;22.52;56.25;99698.47;4485478;32;34410;-63
2022/09/07 00:51:06;;;;;;;;;;;;;;;22.44;56.22;99695.84;4480036;32;35481;-64
2022/09/07 00:53:35;;;;;;;;;;;;;;;22.43;56.26;99700.47;4471489;32;35445;-62
2022/09/07 00:56:02;;;;;;;;;;;;;;;22.32;56.71;99701.81;4482187;32;34391;-62
2022/09/07 00:58:30;;;;;;;;;;;;;;;22.22;57.10;99695.00;4484579;32;33844;-62
2022/09/07 01:00:57;;;;;;;;;;;;;;;22.36;56.79;99691.38;4482427;32;34815;-62
2022/09/07 01:03:26;;;;;;;;;;;;;;;22.36;56.84;99694.09;4481203;32;34552;-62
2022/09/07 01:05:55;;;;;;;;;;;;;;;22.36;56.38;99690.53;4481574;32;33066;-64
2022/09/07 01:08:23;;;;;;;;;;;;;;;22.36;56.40;99694.09;4484661;32;33892;-62
2022/09/07 01:10:50;;;;;;;;;;;;;;;22.33;56.53;99689.03;4480850;32;32586;-62
2022/09/07 01:13:18;;;;;;;;;;;;;;;22.42;55.90;99687.87;4471054;32;33114;-62
2022/09/07 01:15:45;;;;;;;;;;;;;;;22.44;55.90;99687.66;4485439;32;33568;-62
2022/09/07 01:18:31;;;;;;;;;;;;;;;22.41;56.16;99696.25;4481113;32;35210;-62
2022/09/07 01:20:59;;;;;;;;;;;;;;;22.32;56.43;99695.53;4481039;32;34194;-62
2022/09/07 01:23:42;;;;;;;;;;;;;;;22.42;55.97;99687.87;4481861;32;34575;-62
2022/09/07 01:26:13;;;;;;;;;;;;;;;22.48;55.91;99689.84;4484367;32;34580;-62
2022/09/07 01:28:41;;;;;;;;;;;;;;;22.47;55.80;99685.44;4484819;32;34535;-63
2022/09/07 01:31:39;;;;;;;;;;;;;;;22.42;55.69;99684.31;4479441;32;34196;-62
2022/09/07 01:34:10;;;;;;;;;;;;;;;22.50;55.75;99674.13;4470690;32;33977;-62
2022/09/07 01:36:56;;;;;;;;;;;;;;;22.47;55.81;99681.81;4478293;32;32390;-62
2022/09/07 01:39:24;;;;;;;;;;;;;;;22.54;55.09;99683.59;4480909;32;35246;-62
2022/09/07 01:41:53;;;;;;;;;;;;;;;22.42;55.30;99678.84;4472897;32;35351;-62
2022/09/07 01:44:24;;;;;;;;;;;;;;;22.46;54.58;99678.25;4481144;32;34134;-62
2022/09/07 01:46:51;;;;;;;;;;;;;;;22.34;54.74;99677.06;4477432;32;35025;-62
2022/09/07 01:49:23;;;;;;;;;;;;;;;22.36;54.76;99671.44;4477736;32;34881;-62
2022/09/07 01:51:55;;;;;;;;;;;;;;;22.38;54.75;99667.50;4473980;32;34513;-62
2022/09/07 01:54:28;;;;;;;;;;;;;;;22.30;54.87;99664.88;4474588;31;34063;-62
2022/09/07 01:56:56;;;;;;;;;;;;;;;22.27;54.82;99668.81;4470008;32;33291;-62
2022/09/07 01:59:28;;;;;;;;;;;;;;;22.31;54.80;99669.28;4472233;32;35074;-61
2022/09/07 02:02:03;;;;;;;;;;;;;;;22.32;54.81;99671.00;4482381;32;35484;-62
2022/09/07 02:04:33;;;;;;;;;;;;;;;22.32;54.81;99662.81;4472494;32;34440;-62
2022/09/07 02:07:12;;;;;;;;;;;;;;;22.26;55.02;99666.31;4468322;32;33312;-62
2022/09/07 02:09:49;;;;;;;;;;;;;;;22.25;54.87;99659.16;4468516;32;34376;-62
2022/09/07 02:12:19;;;;;;;;;;;;;;;22.22;54.95;99663.13;4469285;32;33505;-62
2022/09/07 02:14:48;;;;;;;;;;;;;;;22.18;55.24;99658.22;4466209;32;33524;-62
2022/09/07 02:17:24;;;;;;;;;;;;;;;22.19;54.87;99666.22;4479630;32;33375;-62
2022/09/07 02:19:53;;;;;;;;;;;;;;;22.11;54.67;99669.00;4479366;32;33917;-61
2022/09/07 02:22:26;;;;;;;;;;;;;;;22.12;54.73;99665.28;4478396;32;33959;-61
2022/09/07 02:24:55;;;;;;;;;;;;;;;22.14;54.94;99663.19;4477525;32;34328;-61
2022/09/07 02:27:30;;;;;;;;;;;;;;;22.15;55.01;99656.72;4473367;32;34203;-61
2022/09/07 02:29:58;;;;;;;;;;;;;;;22.01;55.81;99652.13;4473238;32;34887;-63
2022/09/07 02:32:25;;;;;;;;;;;;;;;22.06;55.49;99653.25;4475789;32;33040;-62
2022/09/07 02:34:53;;;;;;;;;;;;;;;22.12;55.44;99651.66;4481198;32;32535;-63
2022/09/07 02:37:20;;;;;;;;;;;;;;;22.11;54.99;99647.22;4475129;32;34321;-63
2022/09/07 02:39:48;;;;;;;;;;;;;;;22.05;55.30;99650.69;4481909;32;35483;-62
2022/09/07 02:42:15;;;;;;;;;;;;;;;22.04;55.16;99647.12;4479968;32;34860;-62
2022/09/07 02:44:45;;;;;;;;;;;;;;;22.08;54.83;99642.16;4481862;32;34148;-62
2022/09/07 02:47:21;;;;;;;;;;;;;;;21.89;55.25;99640.88;4483053;32;33372;-63
2022/09/07 02:49:52;;;;;;;;;;;;;;;21.90;55.00;99648.03;4470291;32;35291;-62
2022/09/07 02:52:28;;;;;;;;;;;;;;;21.80;54.91;99652.94;4477352;32;35170;-62
2022/09/07 02:54:56;;;;;;;;;;;;;;;21.78;55.12;99634.03;4482664;32;34183;-61
2022/09/07 02:57:29;;;;;;;;;;;;;;;21.75;55.57;99633.56;4479248;32;33044;-61
2022/09/07 02:59:59;;;;;;;;;;;;;;;21.77;55.78;99643.25;4480354;32;35431;-61
2022/09/07 03:02:29;;;;;;;;;;;;;;;21.83;55.56;99641.66;4480308;32;35286;-61
2022/09/07 03:05:02;;;;;;;;;;;;;;;21.79;55.93;99638.44;4484101;32;32792;-62
2022/09/07 03:07:34;;;;;;;;;;;;;;;21.80;56.06;99642.03;4477254;32;32223;-62
2022/09/07 03:10:05;;;;;;;;;;;;;;;21.85;56.09;99640.41;4469512;32;32661;-62
2022/09/07 03:12:46;;;;;;;;;;;;;;;21.86;56.09;99638.53;4464385;32;33972;-61
2022/09/07 03:15:14;;;;;;;;;;;;;;;21.79;56.53;99637.59;4473341;32;35444;-62
2022/09/07 03:17:42;;;;;;;;;;;;;;;21.92;56.03;99634.19;4480473;32;33560;-62
2022/09/07 03:20:09;;;;;;;;;;;;;;;21.94;56.14;99627.53;4481382;32;34093;-61
2022/09/07 03:22:37;;;;;;;;;;;;;;;22.00;55.88;99634.09;4477949;32;33864;-61
2022/09/07 03:25:04;;;;;;;;;;;;;;;21.95;56.00;99640.09;4479259;32;35467;-61
2022/09/07 03:27:32;;;;;;;;;;;;;;;21.92;56.10;99634.19;4478273;32;30381;-61
2022/09/07 03:29:59;;;;;;;;;;;;;;;21.89;56.19;99635.41;4482634;32;34117;-61
2022/09/07 03:32:31;;;;;;;;;;;;;;;21.90;56.17;99631.69;4485973;32;34425;-62
2022/09/07 03:34:58;;;;;;;;;;;;;;;21.90;55.99;99628.94;4483183;32;33306;-62
2022/09/07 03:37:26;;;;;;;;;;;;;;;21.81;55.91;99630.09;4477906;32;34368;-62
2022/09/07 03:39:53;;;;;;;;;;;;;;;21.81;55.94;99636.38;4483733;32;35381;-61
2022/09/07 03:42:21;;;;;;;;;;;;;;;21.86;55.64;99638.53;4483260;32;34246;-62
2022/09/07 03:44:49;;;;;;;;;;;;;;;21.88;55.46;99641.91;4484220;32;33106;-61
2022/09/07 03:47:16;;;;;;;;;;;;;;;21.73;55.54;99644.63;4469232;32;34595;-61
2022/09/07 03:49:43;;;;;;;;;;;;;;;21.55;55.88;99645.03;4484265;32;35041;-62
2022/09/07 03:52:11;;;;;;;;;;;;;;;21.52;55.85;99653.59;4480011;32;34318;-61
2022/09/07 03:54:38;;;;;;;;;;;;;;;21.59;55.64;99648.22;4482629;32;34948;-61
2022/09/07 03:57:06;;;;;;;;;;;;;;;21.51;55.92;99654.62;4483937;32;33444;-62
2022/09/07 03:59:34;;;;;;;;;;;;;;;21.54;55.91;99656.09;4484324;32;34116;-61
2022/09/07 04:02:01;;;;;;;;;;;;;;;21.45;56.38;99643.66;4479443;32;34088;-62
2022/09/07 04:04:28;;;;;;;;;;;;;;;21.51;56.44;99648.31;4481478;32;35057;-62
2022/09/07 04:06:56;;;;;;;;;;;;;;;21.51;56.44;99656.47;4484388;32;33362;-61
2022/09/07 04:09:23;;;;;;;;;;;;;;;21.53;56.41;99655.25;4478611;32;34213;-62
2022/09/07 04:11:51;;;;;;;;;;;;;;;21.52;56.58;99659.03;4481817;32;35023;-62
2022/09/07 04:14:18;;;;;;;;;;;;;;;21.49;56.70;99658.56;4479447;32;35443;-63
2022/09/07 04:16:46;;;;;;;;;;;;;;;21.42;56.76;99660.34;4480577;32;33002;-62
2022/09/07 04:19:13;;;;;;;;;;;;;;;21.51;56.27;99665.53;4484960;32;34171;-62
2022/09/07 04:21:43;;;;;;;;;;;;;;;21.49;56.49;99653.97;4479667;32;33800;-62
2022/09/07 04:24:10;;;;;;;;;;;;;;;21.50;56.54;99658.34;4480381;32;34596;-62
2022/09/07 04:26:37;;;;;;;;;;;;;;;21.53;56.61;99668.03;4483314;32;33676;-62
2022/09/07 04:29:05;;;;;;;;;;;;;;;21.55;56.64;99669.53;4480797;32;32290;-61
2022/09/07 04:31:33;;;;;;;;;;;;;;;21.50;56.65;99662.97;4481528;32;34446;-61
2022/09/07 04:34:01;;;;;;;;;;;;;;;21.37;56.95;99669.91;4482004;32;34501;-62
2022/09/07 04:36:29;;;;;;;;;;;;;;;21.47;56.57;99677.78;4479848;32;33187;-62
2022/09/07 04:39:00;;;;;;;;;;;;;;;21.45;56.62;99674.44;4483181;32;34477;-63
2022/09/07 04:41:28;;;;;;;;;;;;;;;21.28;57.02;99689.19;4482531;32;34087;-62
2022/09/07 04:43:56;;;;;;;;;;;;;;;21.19;57.24;99688.44;4482563;31;34021;-63
2022/09/07 04:46:25;;;;;;;;;;;;;;;21.29;57.04;99685.47;4483207;32;33409;-62
2022/09/07 04:48:53;;;;;;;;;;;;;;;21.36;56.87;99684.56;4483807;32;32799;-62
2022/09/07 04:51:22;;;;;;;;;;;;;;;21.35;57.30;99687.47;4483140;32;34018;-62
2022/09/07 04:53:50;;;;;;;;;;;;;;;21.36;57.52;99689.16;4470995;32;34414;-62
2022/09/07 04:56:18;;;;;;;;;;;;;;;21.49;57.55;99685.78;4478722;32;34078;-62
2022/09/07 04:58:46;;;;;;;;;;;;;;;21.58;57.44;99676.50;4472220;32;35291;-62
2022/09/07 05:01:14;;;;;;;;;;;;;;;21.70;57.41;99679.59;4478258;32;34157;-62
2022/09/07 05:03:42;;;;;;;;;;;;;;;21.63;57.77;99685.78;4477588;32;32761;-62
2022/09/07 05:06:09;;;;;;;;;;;;;;;21.82;57.52;99678.06;4481687;32;34439;-63
2022/09/07 05:08:40;;;;;;;;;;;;;;;22.01;57.16;99685.66;4483350;32;32797;-63
2022/09/07 05:11:09;;;;;;;;;;;;;;;22.19;56.49;99679.84;4477770;32;33918;-62
2022/09/07 05:13:36;;;;;;;;;;;;;;;22.56;55.34;99678.78;4480603;32;35070;-62
2022/09/07 05:16:10;;;;;;;;;;;;;;;22.81;54.73;99681.13;4482583;32;33157;-62
2022/09/07 05:18:38;;;;;;;;;;;;;;;23.03;54.02;99682.00;4484592;32;33906;-62
2022/09/07 05:21:06;;;;;;;;;;;;;;;23.18;53.21;99685.50;4479731;32;35163;-62
2022/09/07 05:23:34;;;;;;;;;;;;;;;23.88;51.72;99685.53;4483643;32;34478;-62
2022/09/07 05:26:02;;;;;;;;;;;;;;;24.29;50.74;99690.97;4484059;32;33520;-62
2022/09/07 05:28:29;;;;;;;;;;;;;;;24.11;51.51;99687.97;4482280;32;34135;-63
2022/09/07 05:31:04;;;;;;;;;;;;;;;23.72;51.40;99686.72;4479954;32;34306;-62
2022/09/07 05:33:51;;;;;;;;;;;;;;;23.78;51.88;99687.81;4483646;32;32991;-62
2022/09/07 05:36:38;;;;;;;;;;;;;;;23.58;52.00;99696.69;4475593;32;33467;-63
2022/09/07 05:39:06;;;;;;;;;;;;;;;23.65;52.41;99691.25;4480782;32;34514;-62
2022/09/07 05:41:34;;;;;;;;;;;;;;;23.55;52.51;99697.09;4481883;32;34257;-63
2022/09/07 05:44:01;;;;;;;;;;;;;;;23.43;52.88;99699.53;4481466;32;34888;-63
2022/09/07 05:46:50;;;;;;;;;;;;;;;23.44;53.14;99698.50;4475004;32;33699;-63
2022/09/07 05:49:17;;;;;;;;;;;;;;;23.22;53.73;99694.13;4483237;32;32238;-63
2022/09/07 05:51:44;;;;;;;;;;;;;;;23.02;54.03;99696.69;4480597;32;33133;-63
2022/09/07 05:54:12;;;;;;;;;;;;;;;23.33;53.22;99698.19;4483355;32;34286;-62
2022/09/07 05:56:39;;;;;;;;;;;;;;;23.56;53.18;99697.94;4483343;32;33258;-62
2022/09/07 05:59:06;;;;;;;;;;;;;;;23.61;53.26;99695.47;4482011;32;33862;-63
2022/09/07 06:01:34;;;;;;;;;;;;;;;23.42;53.64;99703.31;4479513;32;34012;-62
2022/09/07 06:04:02;;;;;;;;;;;;;;;23.39;53.27;99705.59;4471499;32;34135;-62
2022/09/07 06:06:29;;;;;;;;;;;;;;;23.22;53.78;99705.06;4475298;32;33662;-62
2022/09/07 06:08:57;;;;;;;;;;;;;;;22.50;55.12;99706.00;4482926;32;34714;-61
2022/09/07 06:11:26;;;;;;;;;;;;;;;22.27;56.11;99706.97;4483468;32;34208;-61
2022/09/07 06:13:53;;;;;;;;;;;;;;;22.41;55.80;99705.28;4477237;32;34333;-61
2022/09/07 06:16:21;;;;;;;;;;;;;;;22.25;56.73;99706.34;4480081;32;32180;-61
2022/09/07 06:18:49;;;;;;;;;;;;;;;22.51;55.84;99711.25;4479799;32;32731;-62
2022/09/07 06:21:17;;;;;;;;;;;;;;;22.60;56.21;99713.84;4474675;32;34248;-61
2022/09/07 06:23:45;;;;;;;;;;;;;;;22.75;55.63;99712.75;4484251;32;35573;-61
2022/09/07 06:26:13;;;;;;;;;;;;;;;23.08;55.07;99712.28;4468726;32;31948;-62
2022/09/07 06:28:44;;;;;;;;;;;;;;;23.03;54.90;99709.28;4467691;32;34149;-63
2022/09/07 06:31:20;;;;;;;;;;;;;;;23.13;54.53;99706.22;4480133;32;34073;-62
2022/09/07 06:33:47;;;;;;;;;;;;;;;22.77;54.06;99707.97;4480129;32;33652;-60
2022/09/07 06:36:16;;;;;;;;;;;;;;;22.50;55.42;99703.25;4481889;32;33392;-62
2022/09/07 06:38:44;;;;;;;;;;;;;;;22.76;54.83;99702.69;4481015;32;33769;-62
2022/09/07 06:41:27;;;;;;;;;;;;;;;22.77;55.31;99705.25;4468686;32;35535;-62
2022/09/07 06:44:17;;;;;;;;;;;;;;;22.55;55.30;99703.53;4473496;32;32844;-64
2022/09/07 06:46:45;;;;;;;;;;;;;;;22.03;56.81;99705.41;4475881;32;33213;-62
2022/09/07 06:49:28;;;;;;;;;;;;;;;22.45;55.98;99698.41;4477524;32;34144;-60
2022/09/07 06:51:55;;;;;;;;;;;;;;;22.74;55.55;99705.63;4481839;32;33048;-62
2022/09/07 06:54:22;;;;;;;;;;;;;;;22.79;54.82;99707.75;4482336;32;34481;-62
2022/09/07 06:57:10;;;;;;;;;;;;;;;21.99;56.16;99701.38;4475783;32;33162;-61
2022/09/07 06:59:37;;;;;;;;;;;;;;;22.43;56.48;99694.16;4479097;32;34250;-61
2022/09/07 07:02:05;;;;;;;;;;;;;;;22.64;55.22;99699.66;4478573;32;33012;-61
2022/09/07 07:04:32;;;;;;;;;;;;;;;22.62;54.67;99700.88;4479926;32;35619;-61
2022/09/07 07:07:10;;;;;;;;;;;;;;;22.93;54.28;99698.72;4478713;32;32233;-61
2022/09/07 07:09:38;;;;;;;;;;;;;;;23.07;54.41;99698.81;4469958;32;34194;-62
2022/09/07 07:12:05;;;;;;;;;;;;;;;22.91;54.23;99706.19;4481794;32;33453;-61
2022/09/07 07:14:34;;;;;;;;;;;;;;;22.93;54.54;99706.03;4480899;32;35718;-61
2022/09/07 07:17:06;;;;;;;;;;;;;;;22.81;54.99;99702.97;4481112;32;31937;-61
2022/09/07 07:19:33;;;;;;;;;;;;;;;22.24;57.12;99714.72;4481799;32;34380;-62
2022/09/07 07:22:00;;;;;;;;;;;;;;;22.59;55.29;99706.72;4479112;32;33036;-61
2022/09/07 07:24:48;;;;;;;;;;;;;;;22.90;54.89;99711.87;4471137;32;34340;-61
2022/09/07 07:27:16;;;;;;;;;;;;;;;22.29;55.94;99715.00;4467865;32;31961;-61
2022/09/07 07:29:44;;;;;;;;;;;;;;;22.88;54.30;99701.13;4474603;32;33825;-61
2022/09/07 07:32:12;;;;;;;;;;;;;;;22.77;54.53;99707.12;4480516;32;34672;-62
2022/09/07 07:34:39;;;;;;;;;;;;;;;22.85;55.50;99706.97;4483305;32;34348;-61
2022/09/07 07:37:06;;;;;;;;;;;;;;;22.96;54.62;99706.50;4481507;32;33506;-61
2022/09/07 07:39:34;;;;;;;;;;;;;;;23.35;53.82;99707.88;4481437;32;33772;-62
2022/09/07 07:42:21;;;;;;;;;;;;;;;23.13;53.89;99714.41;4473367;32;34247;-61
2022/09/07 07:44:49;;;;;;;;;;;;;;;22.89;53.50;99710.16;4471826;32;34386;-61
2022/09/07 07:47:36;;;;;;;;;;;;;;;23.05;53.80;99712.69;4480984;32;34969;-62
2022/09/07 07:50:05;;;;;;;;;;;;;;;23.53;53.21;99706.53;4479705;32;33008;-61
2022/09/07 07:52:53;;;;;;;;;;;;;;;23.68;53.69;99707.25;4479554;32;34295;-62
2022/09/07 07:55:41;;;;;;;;;;;;;;;23.60;52.54;99704.69;4473971;32;33025;-62
2022/09/07 07:58:10;;;;;;;;;;;;;;;23.76;52.51;99692.66;4477693;32;33416;-62
2022/09/07 08:00:37;;;;;;;;;;;;;;;23.58;52.61;99701.31;4476865;32;35334;-62
2022/09/07 08:03:21;;;;;;;;;;;;;;;23.33;53.69;99701.75;4478731;32;33444;-61
2022/09/07 08:05:48;;;;;;;;;;;;;;;23.56;52.77;99695.19;4477197;32;34512;-62
2022/09/07 08:08:16;;;;;;;;;;;;;;;23.64;53.32;99697.78;4480645;32;33630;-61
2022/09/07 08:10:44;;;;;;;;;;;;;;;23.87;52.57;99703.84;4480855;32;35172;-62
2022/09/07 08:13:13;;;;;;;;;;;;;;;24.21;51.70;99704.00;4483555;32;34032;-61
2022/09/07 08:15:43;;;;;;;;;;;;;;;23.76;53.05;99703.56;4483005;32;34347;-62
2022/09/07 08:18:11;;;;;;;;;;;;;;;23.90;51.10;99708.06;4473914;32;32735;-61
2022/09/07 08:20:39;;;;;;;;;;;;;;;23.68;52.11;99707.25;4478719;32;32904;-61
2022/09/07 08:23:06;;;;;;;;;;;;;;;23.64;51.87;99706.81;4474738;32;32784;-62
2022/09/07 08:25:34;;;;;;;;;;;;;;;23.55;53.88;99698.97;4479381;32;34496;-62
2022/09/07 08:28:02;;;;;;;;;;;;;;;23.92;51.54;99701.34;4483665;32;33490;-61
2022/09/07 08:30:30;;;;;;;;;;;;;;;24.00;51.16;99699.47;4478686;32;35083;-62
2022/09/07 08:32:57;;;;;;;;;;;;;;;23.94;51.42;99696.50;4483667;32;33909;-62
2022/09/07 08:35:24;;;;;;;;;;;;;;;24.16;51.06;99704.59;4485135;32;33549;-62
2022/09/07 08:37:52;;;;;;;;;;;;;;;24.52;50.45;99696.13;4480986;32;33204;-63
2022/09/07 08:40:19;;;;;;;;;;;;;;;24.77;51.27;99693.66;4478960;32;35128;-63
2022/09/07 08:43:05;;;;;;;;;;;;;;;24.65;51.49;99695.31;4482638;32;33283;-64
2022/09/07 08:45:33;;;;;;;;;;;;;;;24.97;50.59;99690.94;4480077;31;32897;-62
2022/09/07 08:48:01;;;;;;;;;;;;;;;24.81;50.79;99699.56;4468037;32;32508;-62
2022/09/07 08:50:30;;;;;;;;;;;;;;;24.82;49.05;99691.16;4477936;32;33882;-62
2022/09/07 08:52:58;;;;;;;;;;;;;;;24.95;49.08;99697.69;4481998;32;34369;-61
2022/09/07 08:55:26;;;;;;;;;;;;;;;25.28;48.14;99689.50;4478216;32;35386;-62
2022/09/07 08:58:02;;;;;;;;;;;;;;;25.60;47.53;99689.69;4474632;32;33078;-61
2022/09/07 09:00:30;;;;;;;;;;;;;;;25.57;47.01;99690.94;4475708;32;34885;-62
2022/09/07 09:02:57;;;;;;;;;;;;;;;25.26;47.60;99686.97;4471965;32;35380;-61
2022/09/07 09:05:48;;;;;;;;;;;;;;;25.25;48.17;99677.06;4479860;32;34422;-61
2022/09/07 09:08:19;;;;;;;;;;;;;;;25.19;47.59;99680.66;4474891;32;32462;-62
2022/09/07 09:10:52;;;;;;;;;;;;;;;25.19;48.47;99685.28;4482319;32;34294;-62
2022/09/07 09:13:19;;;;;;;;;;;;;;;25.64;47.56;99696.41;4469346;32;35338;-63
2022/09/07 09:15:51;;;;;;;;;;;;;;;25.33;47.98;99696.03;4479317;31;34111;-63
2022/09/07 09:18:30;;;;;;;;;;;;;;;25.54;47.94;99694.13;4480565;32;33151;-63
2022/09/07 09:20:58;;;;;;;;;;;;;;;25.89;47.15;99685.62;4482810;32;34134;-63
2022/09/07 09:23:27;;;;;;;;;;;;;;;26.02;46.62;99680.94;4469380;32;32927;-63
2022/09/07 09:25:55;;;;;;;;;;;;;;;26.03;47.11;99684.50;4480325;32;34469;-61
2022/09/07 09:28:22;;;;;;;;;;;;;;;26.38;46.04;99678.66;4478459;32;33834;-62
2022/09/07 09:30:53;;;;;;;;;;;;;;;25.77;47.55;99675.28;4476913;32;34466;-60
2022/09/07 09:33:27;;;;;;;;;;;;;;;25.89;46.87;99672.75;4481182;32;35501;-62
2022/09/07 09:35:58;;;;;;;;;;;;;;;26.32;45.72;99665.81;4485011;32;34195;-60
2022/09/07 09:38:33;;;;;;;;;;;;;;;25.99;46.91;99675.88;4482225;32;34630;-61
2022/09/07 09:41:03;;;;;;;;;;;;;;;26.19;46.79;99672.22;4477880;32;32923;-62
2022/09/07 09:43:36;;;;;;;;;;;;;;;26.69;46.10;99666.91;4477834;32;33981;-61
2022/09/07 09:46:04;;;;;;;;;;;;;;;26.52;45.58;99663.84;4472197;32;34320;-65
2022/09/07 09:48:40;;;;;;;;;;;;;;;26.76;45.72;99664.13;4471051;32;33435;-61
2022/09/07 09:51:07;;;;;;;;;;;;;;;26.69;44.82;99666.91;4471420;32;32734;-61
2022/09/07 09:53:55;;;;;;;;;;;;;;;26.65;44.59;99660.19;4468373;32;35399;-62
2022/09/07 09:56:34;;;;;;;;;;;;;;;27.08;44.15;99656.69;4480767;32;34335;-61
2022/09/07 09:59:17;;;;;;;;;;;;;;;26.95;44.15;99657.63;4480200;32;33731;-63
2022/09/07 10:02:23;;;;;;;;;;;;;;;26.90;43.80;99657.44;4480212;32;34013;-61
2022/09/07 10:05:27;;;;;;;;;;;;;;;27.14;44.15;99645.66;4476184;32;32796;-60
2022/09/07 10:07:55;;;;;;;;;;;;;;;27.56;44.15;99653.28;4472361;32;35835;-61
2022/09/07 10:10:24;;;;;;;;;;;;;;;27.06;44.83;99651.41;4482006;32;34255;-61
2022/09/07 10:12:53;;;;;;;;;;;;;;;27.66;43.66;99647.25;4480377;32;34410;-61
2022/09/07 10:15:28;;;;;;;;;;;;;;;27.67;42.84;99641.53;4483024;32;34156;-61
2022/09/07 10:17:55;;;;;;;;;;;;;;;28.08;41.96;99638.09;4479899;32;34453;-61
2022/09/07 10:20:32;;;;;;;;;;;;;;;28.20;42.66;99646.41;4483236;32;35125;-61
2022/09/07 10:23:00;;;;;;;;;;;;;;;28.02;43.62;99639.03;4478652;32;33943;-61
2022/09/07 10:25:40;;;;;;;;;;;;;;;28.35;41.24;99632.25;4483027;32;35157;-62
2022/09/07 10:28:08;;;;;;;;;;;;;;;28.66;41.77;99631.16;4471356;32;34493;-60
2022/09/07 10:30:39;;;;;;;;;;;;;;;28.59;40.31;99635.09;4483590;32;34758;-61
2022/09/07 10:33:15;;;;;;;;;;;;;;;29.00;40.03;99640.59;4479781;32;34070;-61
2022/09/07 10:35:48;;;;;;;;;;;;;;;29.05;39.26;99644.56;4480667;32;35450;-62
2022/09/07 10:38:16;;;;;;;;;;;;;;;28.53;40.91;99639.62;4469866;32;34648;-61
2022/09/07 10:40:53;;;;;;;;;;;;;;;28.62;40.12;99632.72;4455791;32;32610;-61
2022/09/07 10:43:26;;;;;;;;;;;;;;;29.18;39.45;99634.16;4475822;32;34229;-61
2022/09/07 10:46:05;;;;;;;;;;;;;;;29.35;38.78;99638.97;4464573;32;33536;-62
2022/09/07 10:48:32;;;;;;;;;;;;;;;29.31;37.82;99634.97;4476251;32;34070;-61
2022/09/07 10:51:02;;;;;;;;;;;;;;;29.34;39.28;99631.75;4480902;32;34646;-63
2022/09/07 10:53:46;;;;;;;;;;;;;;;29.06;38.29;99643.50;4466232;32;34040;-61
2022/09/07 10:56:34;;;;;;;;;;;;;;;29.29;38.92;99634.41;4468430;32;32521;-62
2022/09/07 10:59:05;;;;;;;;;;;;;;;29.68;37.99;99628.16;4476226;32;33384;-61
2022/09/07 11:01:51;;;;;;;;;;;;;;;29.91;36.71;99621.75;4477240;32;32658;-62
2022/09/07 11:04:19;;;;;;;;;;;;;;;30.17;36.07;99625.84;4478355;32;34794;-62
2022/09/07 11:06:47;;;;;;;;;;;;;;;30.10;37.42;99629.84;4478869;32;33778;-62
2022/09/07 11:09:22;;;;;;;;;;;;;;;30.00;36.16;99624.12;4468212;32;32998;-61
2022/09/07 11:12:16;;;;;;;;;;;;;;;30.09;36.01;99626.25;4470871;32;33441;-61
2022/09/07 11:14:44;;;;;;;;;;;;;;;29.91;37.69;99627.25;4468949;32;32467;-61
2022/09/07 11:17:13;;;;;;;;;;;;;;;30.29;37.29;99608.44;4452936;32;32729;-61
2022/09/07 11:19:43;;;;;;;;;;;;;;;30.28;38.11;99607.59;4472141;32;32754;-62
2022/09/07 11:22:10;;;;;;;;;;;;;;;29.45;36.76;99617.12;4480651;32;33370;-61
2022/09/07 11:24:48;;;;;;;;;;;;;;;29.76;37.11;99617.81;4475257;32;34137;-61
2022/09/07 11:27:38;;;;;;;;;;;;;;;30.12;37.37;99613.88;4480181;32;34502;-61
2022/09/07 11:30:12;;;;;;;;;;;;;;;30.10;37.63;99613.28;4470346;32;33246;-61
2022/09/07 11:32:41;;;;;;;;;;;;;;;30.18;37.12;99612.91;4478547;32;31834;-61
2022/09/07 11:35:20;;;;;;;;;;;;;;;30.01;38.01;99603.72;4467570;32;35428;-61
2022/09/07 11:37:53;;;;;;;;;;;;;;;29.67;38.14;99604.41;4478279;32;33507;-61
2022/09/07 11:40:26;;;;;;;;;;;;;;;30.04;38.14;99603.22;4473901;32;34219;-62
2022/09/07 11:42:58;;;;;;;;;;;;;;;30.18;37.46;99607.38;4466875;32;32972;-61
2022/09/07 11:45:30;;;;;;;;;;;;;;;30.06;37.38;99601.06;4464207;32;33530;-61
2022/09/07 11:48:04;;;;;;;;;;;;;;;30.43;36.64;99601.50;4471521;32;34135;-62
2022/09/07 11:50:33;;;;;;;;;;;;;;;30.32;37.52;99594.97;4474118;32;33782;-62
2022/09/07 11:53:20;;;;;;;;;;;;;;;29.61;37.91;99607.31;4466300;32;33422;-62
2022/09/07 11:55:49;;;;;;;;;;;;;;;29.52;37.30;99600.47;4476190;32;35254;-61
2022/09/07 11:58:40;;;;;;;;;;;;;;;30.12;36.79;99595.41;4470625;32;33087;-63
2022/09/07 12:01:13;;;;;;;;;;;;;;;30.23;37.06;99587.34;4473724;32;33041;-62
2022/09/07 12:03:59;;;;;;;;;;;;;;;30.10;38.08;99582.94;4463452;32;31856;-62
2022/09/07 12:06:32;;;;;;;;;;;;;;;29.92;37.23;99586.69;4479904;32;34537;-61
2022/09/07 12:09:12;;;;;;;;;;;;;;;30.20;37.10;99577.62;4483194;32;34063;-61
2022/09/07 12:11:53;;;;;;;;;;;;;;;29.81;38.07;99580.16;4480315;32;34667;-61
2022/09/07 12:14:24;;;;;;;;;;;;;;;29.64;38.56;99582.00;4465041;32;34011;-62
2022/09/07 12:17:10;;;;;;;;;;;;;;;29.45;38.88;99584.88;4465825;32;33543;-62
2022/09/07 12:19:37;;;;;;;;;;;;;;;30.06;37.12;99576.22;4477225;32;34179;-62
2022/09/07 12:22:16;;;;;;;;;;;;;;;30.48;36.79;99578.69;4478077;31;34639;-62
2022/09/07 12:24:50;;;;;;;;;;;;;;;30.48;37.34;99575.94;4469642;32;33254;-61
2022/09/07 12:27:20;;;;;;;;;;;;;;;29.62;39.00;99575.88;4470303;32;34079;-62
2022/09/07 12:30:08;;;;;;;;;;;;;;;28.93;41.02;99573.75;4473244;32;33903;-62
2022/09/07 12:32:45;;;;;;;;;;;;;;;29.64;40.08;99576.50;4443362;31;34319;-62
2022/09/07 12:35:25;;;;;;;;;;;;;;;29.68;39.13;99575.75;4476889;32;33516;-62
2022/09/07 12:37:53;;;;;;;;;;;;;;;30.07;38.50;99580.66;4476155;32;33146;-61
2022/09/07 12:40:29;;;;;;;;;;;;;;;29.68;39.25;99584.03;4471460;32;35082;-62
2022/09/07 12:43:12;;;;;;;;;;;;;;;29.74;39.92;99573.94;4480840;32;34221;-62
2022/09/07 12:45:39;;;;;;;;;;;;;;;29.55;40.17;99577.91;4471936;32;32033;-62
2022/09/07 12:48:11;;;;;;;;;;;;;;;30.14;39.14;99573.06;4471980;32;33659;-62
2022/09/07 12:50:58;;;;;;;;;;;;;;;30.40;38.27;99561.47;4474253;32;34378;-62
2022/09/07 12:53:35;;;;;;;;;;;;;;;30.20;39.17;99561.06;4468915;32;32723;-62
2022/09/07 12:56:21;;;;;;;;;;;;;;;29.80;39.60;99561.94;4479859;32;32202;-62
2022/09/07 12:58:50;;;;;;;;;;;;;;;29.76;39.54;99557.13;4479280;32;34328;-62
2022/09/07 13:01:33;;;;;;;;;;;;;;;29.71;38.26;99558.72;4462395;32;34092;-62
2022/09/07 13:04:10;;;;;;;;;;;;;;;29.67;39.48;99554.78;4478077;32;32927;-61
2022/09/07 13:06:41;;;;;;;;;;;;;;;30.15;38.44;99553.50;4475260;31;31663;-62
2022/09/07 13:09:38;;;;;;;;;;;;;;;30.15;37.88;99552.69;4477588;32;34754;-61
2022/09/07 13:12:21;;;;;;;;;;;;;;;29.51;40.80;99547.25;4458124;32;35011;-61